createdAt,value
2023-04-24T00:02:04.825Z,98223.91
2023-04-24T00:04:52.459Z,98218.41
2023-04-24T00:07:39.560Z,98218.03
2023-04-24T00:10:26.714Z,98220.22
2023-04-24T00:13:13.868Z,98212.34
2023-04-24T00:16:00.972Z,98221.31
2023-04-24T00:18:48.963Z,98211.28
2023-04-24T00:21:36.232Z,98198.91
2023-04-24T00:24:23.324Z,98208.94
2023-04-24T00:27:10.732Z,98201.09
2023-04-24T00:29:57.784Z,98191.56
2023-04-24T00:32:44.930Z,98202.38
2023-04-24T00:35:32.123Z,98203.22
2023-04-24T00:38:19.583Z,98216.13
2023-04-24T00:41:07.098Z,98216.19
2023-04-24T00:43:54.258Z,98201.78
2023-04-24T00:46:42.350Z,98208.66
2023-04-24T00:49:29.533Z,98208.69
2023-04-24T00:52:18.767Z,98214.38
2023-04-24T00:55:06.782Z,98222.25
2023-04-24T00:57:54.052Z,98226.47
2023-04-24T01:00:41.144Z,98213.16
2023-04-24T01:03:32.170Z,98212.34
2023-04-24T01:06:20.229Z,98223.72
2023-04-24T01:09:10.123Z,98208.13
2023-04-24T01:11:57.751Z,98200.94
2023-04-24T01:14:45.217Z,98208.66
2023-04-24T01:17:32.527Z,98203.44
2023-04-24T01:20:20.321Z,98181.78
2023-04-24T01:23:08.556Z,98171.38
2023-04-24T01:25:55.925Z,98155.25
2023-04-24T01:28:43.060Z,98138.66
2023-04-24T01:31:30.888Z,98115.47
2023-04-24T01:34:18.292Z,98133.88
2023-04-24T01:37:06.439Z,98114.75
2023-04-24T01:39:53.636Z,98120.94
2023-04-24T01:42:42.393Z,98120.03
2023-04-24T01:45:29.522Z,98103.16
2023-04-24T01:48:16.738Z,98117.78
2023-04-24T01:51:03.970Z,98110.59
2023-04-24T01:53:51.430Z,98126.03
2023-04-24T01:56:46.279Z,98135.72
2023-04-24T01:59:34.561Z,98127.19
2023-04-24T02:02:22.532Z,98131.66
2023-04-24T02:05:11.020Z,98124.84
2023-04-24T02:07:58.278Z,98129.53
2023-04-24T02:10:45.412Z,98136.75
2023-04-24T02:13:32.769Z,98125.69
2023-04-24T02:16:20.181Z,98154.50
2023-04-24T02:19:07.474Z,98138.75
2023-04-24T02:21:54.625Z,98149.25
2023-04-24T02:24:41.878Z,98147.59
2023-04-24T02:27:28.913Z,98135.19
2023-04-24T02:30:16.097Z,98137.34
2023-04-24T02:33:03.313Z,98131.28
2023-04-24T02:35:50.415Z,98127.47
2023-04-24T02:38:37.471Z,98129.63
2023-04-24T02:41:24.655Z,98131.47
2023-04-24T02:44:11.872Z,98130.13
2023-04-24T02:46:58.964Z,98121.88
2023-04-24T02:49:46.056Z,98132.06
2023-04-24T02:52:33.236Z,98116.69
2023-04-24T02:55:20.500Z,98121.50
2023-04-24T02:58:07.598Z,98122.22
2023-04-24T03:00:56.928Z,98127.00
2023-04-24T03:03:44.246Z,98133.88
2023-04-24T03:06:32.541Z,98126.97
2023-04-24T03:09:20.185Z,98124.63
2023-04-24T03:12:07.484Z,98129.13
2023-04-24T03:14:54.573Z,98132.00
2023-04-24T03:17:41.706Z,98117.09
2023-04-24T03:20:28.920Z,98121.56
2023-04-24T03:23:16.368Z,98122.06
2023-04-24T03:26:03.634Z,98119.84
2023-04-24T03:28:50.695Z,98115.78
2023-04-24T03:31:37.904Z,98105.97
2023-04-24T03:34:24.964Z,98122.47
2023-04-24T03:37:12.033Z,98125.59
2023-04-24T03:39:59.150Z,98122.06
2023-04-24T03:42:46.267Z,98130.97
2023-04-24T03:45:33.322Z,98125.28
2023-04-24T03:48:20.569Z,98135.66
2023-04-24T03:51:07.631Z,98127.59
2023-04-24T03:53:54.982Z,98141.28
2023-04-24T03:56:42.005Z,98139.25
2023-04-24T03:59:29.197Z,98143.09
2023-04-24T04:02:16.359Z,98123.63
2023-04-24T04:05:03.761Z,98143.59
2023-04-24T04:07:50.906Z,98123.28
2023-04-24T04:10:38.081Z,98133.69
2023-04-24T04:13:25.113Z,98133.47
2023-04-24T04:16:12.182Z,98134.28
2023-04-24T04:18:59.757Z,98140.03
2023-04-24T04:21:46.899Z,98151.28
2023-04-24T04:24:33.975Z,98159.88
2023-04-24T04:27:22.580Z,98145.03
2023-04-24T04:30:10.924Z,98159.31
2023-04-24T04:32:58.130Z,98145.56
2023-04-24T04:35:45.360Z,98150.63
2023-04-24T04:38:32.482Z,98144.94
2023-04-24T04:41:19.636Z,98120.84
2023-04-24T04:44:07.759Z,98127.50
2023-04-24T04:46:57.364Z,98118.41
2023-04-24T04:49:45.154Z,98124.75
2023-04-24T04:52:32.628Z,98118.38
2023-04-24T04:55:21.023Z,98130.72
2023-04-24T04:58:08.241Z,98136.16
2023-04-24T05:00:55.358Z,98141.31
2023-04-24T05:03:42.611Z,98139.09
2023-04-24T05:06:29.882Z,98142.81
2023-04-24T05:09:17.145Z,98130.44
2023-04-24T05:12:04.800Z,98146.91
2023-04-24T05:14:51.816Z,98152.19
2023-04-24T05:17:40.838Z,98140.47
2023-04-24T05:20:27.955Z,98145.78
2023-04-24T05:23:15.042Z,98144.28
2023-04-24T05:26:02.102Z,98149.88
2023-04-24T05:28:49.117Z,98163.31
2023-04-24T05:31:36.572Z,98171.50
2023-04-24T05:34:23.656Z,98150.16
2023-04-24T05:37:11.133Z,98152.63
2023-04-24T05:39:58.197Z,98141.84
2023-04-24T05:42:45.259Z,98146.69
2023-04-24T05:45:32.841Z,98148.84
2023-04-24T05:48:20.098Z,98153.28
2023-04-24T05:51:07.188Z,98149.09
2023-04-24T05:53:54.276Z,98155.69
2023-04-24T05:56:43.140Z,98149.56
2023-04-24T05:59:30.543Z,98145.75
2023-04-24T06:02:17.935Z,98146.41
2023-04-24T06:05:05.901Z,98148.72
2023-04-24T06:07:53.407Z,98152.53
2023-04-24T06:10:40.575Z,98149.38
2023-04-24T06:13:27.698Z,98151.78
2023-04-24T06:16:14.852Z,98151.72
2023-04-24T06:19:01.968Z,98143.63
2023-04-24T06:21:49.048Z,98142.81
2023-04-24T06:24:36.140Z,98147.63
2023-04-24T06:27:23.295Z,98140.13
2023-04-24T06:30:11.357Z,98141.97
2023-04-24T06:33:02.993Z,98140.09
2023-04-24T06:35:56.616Z,98158.69
2023-04-24T06:38:43.699Z,98151.34
2023-04-24T06:41:30.973Z,98155.72
2023-04-24T06:44:18.105Z,98158.31
2023-04-24T06:47:05.309Z,98151.53
2023-04-24T06:49:53.645Z,98156.81
2023-04-24T06:52:42.020Z,98170.00
2023-04-24T06:55:29.130Z,98162.47
2023-04-24T06:58:17.134Z,98162.84
2023-04-24T07:01:04.312Z,98163.69
2023-04-24T07:03:51.631Z,98176.69
2023-04-24T07:06:39.004Z,98166.03
2023-04-24T07:09:27.126Z,98172.25
2023-04-24T07:12:14.738Z,98160.69
2023-04-24T07:15:02.364Z,98176.94
2023-04-24T07:17:49.483Z,98176.75
2023-04-24T07:20:36.619Z,98159.31
2023-04-24T07:23:23.661Z,98186.88
2023-04-24T07:26:10.908Z,98186.88
2023-04-24T07:28:58.418Z,98192.31
2023-04-24T07:31:45.587Z,98194.28
2023-04-24T07:34:32.834Z,98176.88
2023-04-24T07:37:20.441Z,98200.06
2023-04-24T07:40:08.217Z,98201.88
2023-04-24T07:42:55.484Z,98199.84
2023-04-24T07:45:42.612Z,98197.63
2023-04-24T07:48:29.633Z,98210.59
2023-04-24T07:51:16.706Z,98207.00
2023-04-24T07:54:04.009Z,98208.94
2023-04-24T07:56:51.381Z,98208.63
2023-04-24T07:59:38.544Z,98203.50
2023-04-24T08:02:27.628Z,98218.56
2023-04-24T08:05:15.214Z,98223.03
2023-04-24T08:08:02.503Z,98211.63
2023-04-24T08:10:50.282Z,98221.84
2023-04-24T08:13:37.363Z,98211.78
2023-04-24T08:16:27.678Z,98218.66
2023-04-24T08:19:14.778Z,98217.66
2023-04-24T08:22:01.893Z,98220.19
2023-04-24T08:24:48.973Z,98214.03
2023-04-24T08:27:37.734Z,98216.28
2023-04-24T08:30:24.835Z,98216.59
2023-04-24T08:33:11.917Z,98208.03
2023-04-24T08:35:58.914Z,98211.97
2023-04-24T08:38:47.605Z,98223.94
2023-04-24T08:41:35.810Z,98225.44
2023-04-24T08:44:23.245Z,98225.13
2023-04-24T08:47:10.880Z,98235.13
2023-04-24T08:49:59.855Z,98217.00
2023-04-24T08:52:48.267Z,98232.91
2023-04-24T08:55:35.843Z,98228.38
2023-04-24T08:58:23.857Z,98236.09
2023-04-24T09:01:11.595Z,98230.41
2023-04-24T09:03:59.442Z,98249.72
2023-04-24T09:06:47.212Z,98236.19
2023-04-24T09:09:35.899Z,98228.25
2023-04-24T09:12:23.553Z,98240.75
2023-04-24T09:15:12.100Z,98253.88
2023-04-24T09:17:59.348Z,98247.91
2023-04-24T09:21:09.039Z,98250.91
2023-04-24T09:24:04.879Z,98249.50
2023-04-24T09:27:02.586Z,98253.59
2023-04-24T09:29:57.445Z,98238.78
2023-04-24T09:32:44.558Z,98246.31
2023-04-24T09:35:33.371Z,98239.44
2023-04-24T09:38:36.449Z,98261.19
2023-04-24T09:41:23.570Z,98251.38
2023-04-24T09:44:17.248Z,98252.88
2023-04-24T09:47:09.956Z,98252.97
2023-04-24T09:49:59.476Z,98247.38
2023-04-24T09:53:11.927Z,98260.69
2023-04-24T09:56:14.040Z,98254.38
2023-04-24T09:59:08.525Z,98249.72
2023-04-24T10:01:56.704Z,98250.81
2023-04-24T10:04:56.852Z,98243.66
2023-04-24T10:07:44.636Z,98243.56
2023-04-24T10:10:46.043Z,98257.88
2023-04-24T10:13:34.014Z,98261.31
2023-04-24T10:16:23.527Z,98255.38
2023-04-24T10:19:12.042Z,98246.28
2023-04-24T10:21:59.608Z,98256.78
2023-04-24T10:24:48.569Z,98254.16
2023-04-24T10:27:36.035Z,98245.91
2023-04-24T10:30:23.083Z,98247.59
2023-04-24T10:33:10.337Z,98249.84
2023-04-24T10:35:59.580Z,98239.22
2023-04-24T10:38:48.077Z,98252.81
2023-04-24T10:41:38.739Z,98256.25
2023-04-24T10:44:26.225Z,98242.84
2023-04-24T10:47:16.492Z,98250.84
2023-04-24T10:50:08.847Z,98245.75
2023-04-24T10:53:07.499Z,98238.47
2023-04-24T10:56:10.917Z,98232.06
2023-04-24T10:58:58.027Z,98240.19
2023-04-24T11:01:55.487Z,98245.19
2023-04-24T11:04:44.382Z,98239.03
2023-04-24T11:07:51.553Z,98239.59
2023-04-24T11:10:45.712Z,98238.78
2023-04-24T11:13:57.781Z,98233.81
2023-04-24T11:16:46.898Z,98228.88
2023-04-24T11:19:35.127Z,98233.56
2023-04-24T11:22:24.901Z,98234.41
2023-04-24T11:25:13.089Z,98237.66
2023-04-24T11:28:07.338Z,98233.41
2023-04-24T11:30:55.295Z,98225.16
2023-04-24T11:33:42.374Z,98221.94
2023-04-24T11:36:32.637Z,98226.59
2023-04-24T11:39:19.798Z,98217.59
2023-04-24T11:42:08.995Z,98230.41
2023-04-24T11:44:56.957Z,98222.44
2023-04-24T11:47:45.200Z,98227.94
2023-04-24T11:50:32.429Z,98223.88
2023-04-24T11:53:23.072Z,98220.38
2023-04-24T11:56:11.224Z,98222.25
2023-04-24T11:58:58.436Z,98203.69
2023-04-24T12:01:46.848Z,98213.09
2023-04-24T12:04:42.618Z,98203.06
2023-04-24T12:07:29.923Z,98212.88
2023-04-24T12:10:22.558Z,98205.38
2023-04-24T12:13:12.337Z,98210.84
2023-04-24T12:15:59.680Z,98206.69
2023-04-24T12:18:47.195Z,98207.47
2023-04-24T12:21:34.294Z,98201.63
2023-04-24T12:24:21.463Z,98197.13
2023-04-24T12:27:10.200Z,98201.06
2023-04-24T12:29:58.515Z,98199.78
2023-04-24T12:32:50.593Z,98188.09
2023-04-24T12:35:37.758Z,98189.63
2023-04-24T12:38:27.312Z,98190.91
2023-04-24T12:41:15.320Z,98192.13
2023-04-24T12:44:02.525Z,98149.25
2023-04-24T12:46:49.642Z,98169.25
2023-04-24T12:49:37.070Z,98172.19
2023-04-24T12:52:25.537Z,98177.84
2023-04-24T12:55:13.349Z,98172.41
2023-04-24T12:58:00.690Z,98162.59
2023-04-24T13:00:48.761Z,98153.31
2023-04-24T13:03:36.551Z,98145.25
2023-04-24T13:06:23.749Z,98148.34
2023-04-24T13:09:10.977Z,98149.81
2023-04-24T13:11:58.258Z,98155.13
2023-04-24T13:14:47.080Z,98158.88
2023-04-24T13:17:34.583Z,98151.97
2023-04-24T13:20:21.854Z,98160.94
2023-04-24T13:23:09.105Z,98158.66
2023-04-24T13:25:58.689Z,98158.44
2023-04-24T13:28:45.907Z,98156.16
2023-04-24T13:31:33.248Z,98148.22
2023-04-24T13:34:20.444Z,98152.69
2023-04-24T13:37:09.126Z,98150.53
2023-04-24T13:39:56.473Z,98146.69
2023-04-24T13:42:44.123Z,98150.53
2023-04-24T13:45:31.403Z,98162.78
2023-04-24T13:48:19.047Z,98158.28
2023-04-24T13:51:06.287Z,98178.28
2023-04-24T13:53:53.304Z,98178.13
2023-04-24T13:56:41.743Z,98195.44
2023-04-24T13:59:28.822Z,98200.84
2023-04-24T14:02:16.357Z,98211.78
2023-04-24T14:05:04.613Z,98211.06
2023-04-24T14:07:52.170Z,98232.91
2023-04-24T14:10:39.314Z,98225.50
2023-04-24T14:13:26.502Z,98226.03
2023-04-24T14:16:14.278Z,98224.22
2023-04-24T14:19:01.641Z,98228.88
2023-04-24T14:21:48.684Z,98248.28
2023-04-24T14:24:35.913Z,98247.16
2023-04-24T14:27:22.946Z,98250.31
2023-04-24T14:30:10.378Z,98257.25
2023-04-24T14:32:57.538Z,98258.69
2023-04-24T14:35:44.847Z,98248.19
2023-04-24T14:38:32.596Z,98254.66
2023-04-24T14:41:19.693Z,98252.53
2023-04-24T14:44:06.842Z,98254.22
2023-04-24T14:46:54.532Z,98259.56
2023-04-24T14:49:41.696Z,98252.50
2023-04-24T14:52:28.774Z,98259.75
2023-04-24T14:55:15.848Z,98256.88
2023-04-24T14:58:03.866Z,98251.50
2023-04-24T15:00:53.039Z,98249.16
2023-04-24T15:03:40.379Z,98237.78
2023-04-24T15:06:27.631Z,98250.03
2023-04-24T15:09:14.742Z,98246.66
2023-04-24T15:12:03.015Z,98248.97
2023-04-24T15:14:50.082Z,98242.94
2023-04-24T15:17:37.397Z,98246.31
2023-04-24T15:20:24.532Z,98238.00
2023-04-24T15:23:11.656Z,98241.41
2023-04-24T15:25:58.980Z,98231.47
2023-04-24T15:28:47.785Z,98242.25
2023-04-24T15:31:34.973Z,98239.28
2023-04-24T15:34:22.170Z,98228.50
2023-04-24T15:37:09.411Z,98238.56
2023-04-24T15:39:56.975Z,98253.16
2023-04-24T15:42:44.947Z,98242.50
2023-04-24T15:45:33.345Z,98243.69
2023-04-24T15:48:20.780Z,98245.47
2023-04-24T15:51:08.033Z,98245.63
2023-04-24T15:53:55.404Z,98247.41
2023-04-24T15:56:42.560Z,98242.56
2023-04-24T15:59:31.145Z,98236.22
2023-04-24T16:02:20.878Z,98234.56
2023-04-24T16:05:08.966Z,98241.91
2023-04-24T16:07:56.153Z,98243.66
2023-04-24T16:10:43.639Z,98225.53
2023-04-24T16:13:32.118Z,98244.22
2023-04-24T16:16:20.052Z,98252.78
2023-04-24T16:19:08.539Z,98255.84
2023-04-24T16:21:57.276Z,98238.69
2023-04-24T16:24:44.801Z,98253.63
2023-04-24T16:27:32.253Z,98244.31
2023-04-24T16:30:20.083Z,98278.56
2023-04-24T16:33:09.282Z,98274.47
2023-04-24T16:35:56.814Z,98291.72
2023-04-24T16:38:44.081Z,98267.31
2023-04-24T16:41:31.991Z,98286.72
2023-04-24T16:44:19.531Z,98288.19
2023-04-24T16:47:08.040Z,98284.88
2023-04-24T16:49:55.517Z,98283.63
2023-04-24T16:52:43.957Z,98300.97
2023-04-24T16:55:31.585Z,98317.94
2023-04-24T16:58:18.823Z,98308.94
2023-04-24T17:01:06.077Z,98303.38
2023-04-24T17:03:53.565Z,98306.75
2023-04-24T17:06:41.374Z,98322.88
2023-04-24T17:09:28.863Z,98333.28
2023-04-24T17:12:16.085Z,98318.34
2023-04-24T17:15:03.737Z,98321.72
2023-04-24T17:17:52.277Z,98321.22
2023-04-24T17:20:40.345Z,98338.97
2023-04-24T17:23:28.664Z,98336.97
2023-04-24T17:26:16.936Z,98331.28
2023-04-24T17:29:04.419Z,98330.09
2023-04-24T17:31:52.662Z,98345.53
2023-04-24T17:34:40.745Z,98330.25
2023-04-24T17:37:28.734Z,98330.09
2023-04-24T17:40:16.756Z,98335.63
2023-04-24T17:43:04.478Z,98350.56
2023-04-24T17:45:54.088Z,98353.41
2023-04-24T17:48:41.827Z,98360.81
2023-04-24T17:51:29.803Z,98337.31
2023-04-24T17:54:18.280Z,98342.69
2023-04-24T17:57:06.324Z,98351.91
2023-04-24T17:59:53.889Z,98350.44
2023-04-24T18:02:41.585Z,98366.72
2023-04-24T18:05:33.324Z,98385.34
2023-04-24T18:08:20.657Z,98366.56
2023-04-24T18:11:07.971Z,98383.00
2023-04-24T18:13:55.995Z,98365.88
2023-04-24T18:16:43.950Z,98389.88
2023-04-24T18:19:31.452Z,98384.19
2023-04-24T18:22:19.125Z,98377.63
2023-04-24T18:25:06.952Z,98368.56
2023-04-24T18:27:55.181Z,98389.72
2023-04-24T18:30:43.193Z,98412.69
2023-04-24T18:33:30.791Z,98400.28
2023-04-24T18:36:19.325Z,98400.13
2023-04-24T18:39:07.226Z,98403.31
2023-04-24T18:41:57.279Z,98413.00
2023-04-24T18:44:44.967Z,98413.34
2023-04-24T18:47:33.822Z,98426.63
2023-04-24T18:50:22.551Z,98420.75
2023-04-24T18:53:14.613Z,98394.75
2023-04-24T18:56:02.984Z,98423.75
2023-04-24T18:58:52.520Z,98424.25
2023-04-24T19:01:40.531Z,98430.47
2023-04-24T19:04:30.391Z,98435.19
2023-04-24T19:07:19.938Z,98419.09
2023-04-24T19:10:08.748Z,98429.47
2023-04-24T19:12:57.551Z,98440.53
2023-04-24T19:15:45.892Z,98425.41
2023-04-24T19:18:34.921Z,98440.13
2023-04-24T19:21:23.681Z,98447.88
2023-04-24T19:24:11.826Z,98459.75
2023-04-24T19:27:00.161Z,98444.50
2023-04-24T19:29:48.256Z,98456.91
2023-04-24T19:32:36.330Z,98455.63
2023-04-24T19:35:23.684Z,98459.22
2023-04-24T19:38:12.036Z,98470.81
2023-04-24T19:41:00.300Z,98453.59
2023-04-24T19:43:50.348Z,98470.41
2023-04-24T19:46:38.694Z,98477.28
2023-04-24T19:49:29.120Z,98470.38
2023-04-24T19:52:16.825Z,98477.34
2023-04-24T19:55:07.345Z,98465.59
2023-04-24T19:57:54.569Z,98478.72
2023-04-24T20:00:43.151Z,98475.72
2023-04-24T20:03:34.068Z,98463.63
2023-04-24T20:06:22.274Z,98455.09
2023-04-24T20:09:10.145Z,98477.53
2023-04-24T20:11:57.768Z,98484.22
2023-04-24T20:14:45.578Z,98480.69
2023-04-24T20:17:32.854Z,98458.19
2023-04-24T20:20:20.156Z,98476.69
2023-04-24T20:23:08.298Z,98478.44
2023-04-24T20:25:58.662Z,98460.25
2023-04-24T20:28:45.914Z,98479.44
2023-04-24T20:31:33.666Z,98471.72
2023-04-24T20:34:21.701Z,98477.75
2023-04-24T20:37:08.868Z,98480.44
2023-04-24T20:39:56.176Z,98475.88
2023-04-24T20:42:46.496Z,98461.47
2023-04-24T20:45:33.676Z,98460.38
2023-04-24T20:48:20.896Z,98466.31
2023-04-24T20:51:08.269Z,98483.44
2023-04-24T20:53:55.443Z,98479.75
2023-04-24T20:56:42.780Z,98469.25
2023-04-24T20:59:30.011Z,98467.75
2023-04-24T21:02:17.289Z,98464.22
2023-04-24T21:05:04.734Z,98482.91
2023-04-24T21:07:56.035Z,98466.06
2023-04-24T21:10:43.179Z,98469.19
2023-04-24T21:13:30.461Z,98485.75
2023-04-24T21:16:17.706Z,98486.47
2023-04-24T21:19:05.486Z,98485.03
2023-04-24T21:21:52.628Z,98487.50
2023-04-24T21:24:39.761Z,98483.66
2023-04-24T21:27:26.996Z,98469.06
2023-04-24T21:30:14.239Z,98468.13
2023-04-24T21:33:01.515Z,98471.88
2023-04-24T21:35:48.753Z,98492.75
2023-04-24T21:38:35.912Z,98475.16
2023-04-24T21:41:24.827Z,98474.63
2023-04-24T21:44:11.965Z,98468.13
2023-04-24T21:46:59.431Z,98474.41
2023-04-24T21:49:46.510Z,98486.78
2023-04-24T21:52:33.641Z,98476.78
2023-04-24T21:55:21.620Z,98481.75
2023-04-24T21:58:08.870Z,98482.44
2023-04-24T22:00:56.021Z,98469.28
2023-04-24T22:03:43.338Z,98461.78
2023-04-24T22:06:32.256Z,98478.75
2023-04-24T22:09:19.907Z,98470.34
2023-04-24T22:12:07.166Z,98466.66
2023-04-24T22:14:54.290Z,98460.00
2023-04-24T22:17:41.496Z,98462.53
2023-04-24T22:20:30.348Z,98465.75
2023-04-24T22:23:17.525Z,98472.41
2023-04-24T22:26:04.697Z,98488.94
2023-04-24T22:28:51.910Z,98489.84
2023-04-24T22:31:39.211Z,98487.94
2023-04-24T22:34:26.366Z,98494.00
2023-04-24T22:37:13.623Z,98488.13
2023-04-24T22:40:01.503Z,98497.19
2023-04-24T22:42:48.735Z,98495.53
2023-04-24T22:45:36.183Z,98492.06
2023-04-24T22:48:23.386Z,98472.53
2023-04-24T22:51:10.903Z,98496.91
2023-04-24T22:53:58.069Z,98496.44
2023-04-24T22:56:46.651Z,98494.13
2023-04-24T22:59:33.841Z,98496.88
2023-04-24T23:03:36.039Z,98497.34
2023-04-24T23:06:23.394Z,98494.06
2023-04-24T23:09:10.455Z,98485.88
2023-04-24T23:11:58.102Z,98499.19
2023-04-24T23:14:45.142Z,98496.50
2023-04-24T23:17:32.242Z,98481.59
2023-04-24T23:20:21.787Z,98486.41
2023-04-24T23:23:08.918Z,98489.94
2023-04-24T23:25:55.969Z,98476.06
2023-04-24T23:28:43.020Z,98477.69
2023-04-24T23:31:30.109Z,98477.69
2023-04-24T23:34:18.904Z,98479.69
2023-04-24T23:37:06.526Z,98479.69
2023-04-24T23:39:53.654Z,98474.78
2023-04-24T23:42:40.758Z,98477.09
2023-04-24T23:45:27.894Z,98474.75
2023-04-24T23:48:14.945Z,98484.41
2023-04-24T23:51:02.084Z,98484.03
2023-04-24T23:53:49.705Z,98465.38
2023-04-24T23:56:37.334Z,98483.13
2023-04-24T23:59:24.394Z,98473.34
